Time;durP1;ratioP1;P1;durP2;ratioP2;P2;SDS_P1;SDS_P2;PMS_P1;PMS_P2;Temp;Humidity;BMP_temperature;BMP_pressure;BME280_temperature;BME280_humidity;BME280_pressure;Samples;Min_cycle;Max_cycle;Signal;HPM_P1;HPM_P2
2022/03/07 00:02:10;;;;;;;31.33;12.20;;;-1.20;99.90;;;;;;5013199;28;20175;-77
2022/03/07 00:04:36;;;;;;;28.93;13.03;;;-1.20;99.90;;;;;;5012711;28;20198;-76
2022/03/07 00:07:02;;;;;;;25.93;12.87;;;-1.10;99.90;;;;;;5013278;28;20317;-76
2022/03/07 00:09:27;;;;;;;29.30;12.60;;;-1.20;99.90;;;;;;5013009;28;20194;-76
2022/03/07 00:11:53;;;;;;;26.57;12.47;;;-1.30;99.90;;;;;;5012948;28;20179;-76
2022/03/07 00:14:19;;;;;;;28.03;12.83;;;-1.40;99.90;;;;;;5013100;28;20175;-76
2022/03/07 00:16:45;;;;;;;26.27;12.83;;;-1.40;99.90;;;;;;5012863;28;20180;-76
2022/03/07 00:19:11;;;;;;;36.17;13.93;;;-1.30;99.90;;;;;;5012847;28;20586;-76
2022/03/07 00:21:37;;;;;;;33.60;13.43;;;-1.40;99.90;;;;;;5012692;28;20174;-76
2022/03/07 00:24:07;;;;;;;29.07;13.53;;;-1.40;99.90;;;;;;5012736;28;20675;-76
2022/03/07 00:26:33;;;;;;;37.13;13.83;;;-1.30;99.90;;;;;;5014068;28;20217;-79
2022/03/07 00:28:59;;;;;;;33.17;13.20;;;-1.30;99.90;;;;;;5012962;28;20187;-79
2022/03/07 00:31:25;;;;;;;35.97;13.73;;;-1.40;99.90;;;;;;5012796;28;20167;-76
2022/03/07 00:33:51;;;;;;;30.03;13.40;;;-1.40;99.90;;;;;;5012800;28;20178;-76
2022/03/07 00:36:19;;;;;;;30.63;13.43;;;-1.40;99.90;;;;;;5012640;28;20236;-76
2022/03/07 00:38:45;;;;;;;29.03;13.23;;;-1.40;99.90;;;;;;5012435;28;20199;-76
2022/03/07 00:41:11;;;;;;;35.00;13.97;;;-1.40;99.90;;;;;;5012389;28;20182;-76
2022/03/07 00:43:38;;;;;;;32.37;13.40;;;-1.40;99.90;;;;;;5012367;28;20206;-78
2022/03/07 00:46:04;;;;;;;33.93;13.93;;;-1.40;99.90;;;;;;5012503;28;20635;-76
2022/03/07 00:48:30;;;;;;;32.30;13.60;;;-1.40;99.90;;;;;;5012409;28;20205;-76
2022/03/07 00:50:55;;;;;;;29.93;12.70;;;-1.40;99.90;;;;;;5012402;28;20167;-76
2022/03/07 00:53:24;;;;;;;28.03;12.37;;;-1.50;99.90;;;;;;5012144;28;20662;-76
2022/03/07 00:55:51;;;;;;;32.40;13.30;;;-1.50;99.90;;;;;;5012282;28;20179;-77
2022/03/07 00:58:17;;;;;;;31.93;13.30;;;-1.50;99.90;;;;;;5011800;28;20218;-76
2022/03/07 01:00:43;;;;;;;27.43;12.33;;;-1.50;99.90;;;;;;5011330;28;20276;-76
2022/03/07 01:03:10;;;;;;;32.50;13.17;;;-1.60;99.90;;;;;;5011750;28;20194;-76
2022/03/07 01:05:36;;;;;;;28.10;12.07;;;-1.50;99.90;;;;;;5012120;28;20175;-76
2022/03/07 01:08:03;;;;;;;32.77;12.73;;;-1.50;99.90;;;;;;5011923;28;20201;-77
2022/03/07 01:10:28;;;;;;;27.17;12.00;;;-1.50;99.90;;;;;;5012079;28;20170;-77
2022/03/07 01:12:54;;;;;;;32.13;12.40;;;-1.60;99.90;;;;;;5011827;28;20175;-77
2022/03/07 01:15:20;;;;;;;26.47;12.67;;;-1.60;99.90;;;;;;5011927;28;20236;-77
2022/03/07 01:17:46;;;;;;;30.37;11.80;;;-1.60;99.90;;;;;;5011797;28;20205;-77
2022/03/07 01:20:12;;;;;;;29.60;12.83;;;-1.60;99.90;;;;;;5011865;28;20618;-77
2022/03/07 01:22:38;;;;;;;33.90;13.53;;;-1.60;99.90;;;;;;5011590;28;20225;-77
2022/03/07 01:25:06;;;;;;;27.10;11.70;;;-1.50;99.90;;;;;;5011774;28;20181;-77
2022/03/07 01:27:32;;;;;;;28.37;12.30;;;-1.60;99.90;;;;;;5011116;28;20590;-77
2022/03/07 01:29:58;;;;;;;33.07;13.10;;;-1.70;99.90;;;;;;5011597;28;20174;-77
2022/03/07 01:32:24;;;;;;;31.33;13.80;;;-1.70;99.90;;;;;;5011507;28;20270;-77
2022/03/07 01:34:50;;;;;;;35.03;12.87;;;-1.60;99.90;;;;;;5011613;28;20173;-77
2022/03/07 01:37:15;;;;;;;35.63;13.70;;;-1.50;99.90;;;;;;5011288;28;20171;-77
2022/03/07 01:39:42;;;;;;;34.80;13.60;;;-1.50;99.90;;;;;;5011481;28;20229;-77
2022/03/07 01:42:08;;;;;;;33.70;14.10;;;-1.60;99.90;;;;;;5011416;28;20173;-76
2022/03/07 01:44:34;;;;;;;41.00;15.23;;;-1.50;99.90;;;;;;5011391;28;20203;-76
2022/03/07 01:47:00;;;;;;;34.30;14.10;;;-1.50;99.90;;;;;;5011482;28;20622;-76
2022/03/07 01:49:26;;;;;;;31.00;14.40;;;-1.40;99.90;;;;;;5011269;28;20694;-76
2022/03/07 01:51:52;;;;;;;37.40;14.60;;;-1.40;99.90;;;;;;5010869;28;20946;-76
2022/03/07 01:54:19;;;;;;;32.77;14.37;;;-1.40;99.90;;;;;;5011192;28;20181;-76
2022/03/07 01:56:47;;;;;;;38.30;14.93;;;-1.40;99.90;;;;;;5011166;28;20546;-76
2022/03/07 01:59:14;;;;;;;34.00;14.83;;;-1.30;99.90;;;;;;5010733;28;20194;-76
2022/03/07 02:01:40;;;;;;;34.03;14.23;;;-1.30;99.90;;;;;;5010542;28;20175;-76
2022/03/07 02:04:07;;;;;;;31.13;14.20;;;-1.20;99.90;;;;;;5012129;28;20277;-76
2022/03/07 02:06:33;;;;;;;37.47;14.23;;;-1.20;99.90;;;;;;5010806;28;20166;-76
2022/03/07 02:08:58;;;;;;;34.37;13.93;;;-1.20;99.90;;;;;;5010911;28;20213;-76
2022/03/07 02:11:25;;;;;;;29.60;13.80;;;-1.20;99.90;;;;;;5010731;28;20175;-76
2022/03/07 02:13:51;;;;;;;32.90;14.07;;;-1.10;99.90;;;;;;5010961;28;20548;-76
2022/03/07 02:16:19;;;;;;;32.57;14.13;;;-1.00;99.90;;;;;;5010931;28;20182;-76
2022/03/07 02:18:45;;;;;;;32.87;13.83;;;-1.00;99.90;;;;;;5010805;28;20218;-76
2022/03/07 02:21:14;;;;;;;26.57;13.77;;;-1.00;99.90;;;;;;5010713;28;20547;-76
2022/03/07 02:23:41;;;;;;;27.90;12.73;;;-1.00;99.90;;;;;;5010693;28;20702;-76
2022/03/07 02:26:16;;;;;;;29.73;12.70;;;-0.90;99.90;;;;;;5010746;28;20166;-76
2022/03/07 02:28:44;;;;;;;28.13;12.83;;;-0.90;99.90;;;;;;5010659;28;20194;-76
2022/03/07 02:31:10;;;;;;;29.77;12.30;;;-0.80;99.90;;;;;;5010465;28;20170;-76
2022/03/07 02:33:36;;;;;;;25.80;13.30;;;-0.70;99.90;;;;;;5010624;28;20174;-76
2022/03/07 02:36:03;;;;;;;25.57;12.20;;;-0.70;99.90;;;;;;5010710;28;20260;-76
2022/03/07 02:38:29;;;;;;;29.47;12.23;;;-0.70;99.90;;;;;;5010574;28;20198;-76
2022/03/07 02:40:54;;;;;;;26.83;12.43;;;-0.70;99.90;;;;;;5013585;28;20179;-76
2022/03/07 02:43:20;;;;;;;27.10;12.37;;;-0.60;99.90;;;;;;5014510;28;20195;-76
2022/03/07 02:45:46;;;;;;;27.70;12.10;;;-0.60;99.90;;;;;;5014629;28;20216;-76
2022/03/07 02:48:12;;;;;;;33.60;12.60;;;-0.60;99.90;;;;;;5014824;28;20198;-76
2022/03/07 02:50:38;;;;;;;27.73;12.37;;;-0.60;99.90;;;;;;5014641;28;20199;-76
2022/03/07 02:53:04;;;;;;;23.57;11.67;;;-0.50;99.90;;;;;;5014332;28;20562;-76
2022/03/07 02:55:31;;;;;;;25.80;12.73;;;-0.50;99.90;;;;;;5014549;28;20184;-76
2022/03/07 02:57:57;;;;;;;26.00;11.20;;;-0.40;99.90;;;;;;5014010;28;20687;-76
2022/03/07 03:00:23;;;;;;;23.27;11.70;;;-0.40;99.90;;;;;;5013779;28;20230;-76
2022/03/07 03:02:49;;;;;;;25.40;12.17;;;-0.40;99.90;;;;;;5014986;28;20220;-76
2022/03/07 03:05:15;;;;;;;24.17;11.53;;;-0.40;99.90;;;;;;5013732;28;20276;-76
2022/03/07 03:07:40;;;;;;;26.20;12.33;;;-0.40;99.90;;;;;;5013876;28;20456;-76
2022/03/07 03:10:07;;;;;;;26.10;11.87;;;-0.40;99.90;;;;;;5013843;28;20544;-76
2022/03/07 03:12:33;;;;;;;24.67;11.57;;;-0.40;99.90;;;;;;5013614;28;20172;-77
2022/03/07 03:14:59;;;;;;;25.73;11.73;;;-0.40;99.90;;;;;;5015030;28;20194;-76
2022/03/07 03:17:26;;;;;;;23.63;11.50;;;-0.30;99.90;;;;;;5013659;28;21306;-76
2022/03/07 03:19:52;;;;;;;24.10;11.33;;;-0.30;99.90;;;;;;5013817;28;20262;-76
2022/03/07 03:22:19;;;;;;;26.23;12.23;;;-0.30;99.90;;;;;;5013724;28;20171;-76
2022/03/07 03:24:46;;;;;;;24.67;11.70;;;-0.30;99.90;;;;;;5013895;28;20513;-76
2022/03/07 03:27:11;;;;;;;24.67;12.00;;;-0.30;99.90;;;;;;5015168;28;20253;-76
2022/03/07 03:29:37;;;;;;;28.77;12.20;;;-0.20;99.90;;;;;;5013853;28;20287;-76
2022/03/07 03:32:03;;;;;;;25.23;11.73;;;-0.10;99.90;;;;;;5013602;28;20200;-76
2022/03/07 03:34:29;;;;;;;26.87;11.63;;;-0.10;99.90;;;;;;5015086;28;20177;-76
2022/03/07 03:36:54;;;;;;;24.37;11.07;;;-0.10;99.90;;;;;;5013783;28;20182;-76
2022/03/07 03:39:20;;;;;;;24.63;11.20;;;-0.10;99.90;;;;;;5013675;28;20202;-76
2022/03/07 03:41:46;;;;;;;26.53;11.47;;;0.00;99.90;;;;;;5013506;28;20174;-76
2022/03/07 03:44:11;;;;;;;24.80;10.97;;;0.00;99.90;;;;;;5013436;28;20563;-76
2022/03/07 03:46:37;;;;;;;23.63;11.67;;;0.00;99.90;;;;;;5013524;28;20175;-76
2022/03/07 03:49:03;;;;;;;22.60;11.23;;;0.00;99.90;;;;;;5013439;28;20225;-76
2022/03/07 03:51:29;;;;;;;22.20;10.83;;;0.00;99.90;;;;;;5012806;28;20172;-76
2022/03/07 03:53:55;;;;;;;21.50;11.70;;;0.10;99.90;;;;;;5013410;28;20192;-76
2022/03/07 03:56:21;;;;;;;26.97;11.73;;;0.00;99.90;;;;;;5013366;28;20791;-76
2022/03/07 03:58:46;;;;;;;23.93;11.13;;;0.10;99.90;;;;;;5012869;28;20197;-76
2022/03/07 04:01:12;;;;;;;25.50;11.50;;;0.00;99.90;;;;;;5012626;28;20181;-76
2022/03/07 04:03:38;;;;;;;19.90;11.23;;;0.10;99.90;;;;;;5013108;28;20648;-76
2022/03/07 04:06:06;;;;;;;24.30;10.87;;;0.00;99.90;;;;;;5012812;28;20562;-76
2022/03/07 04:08:32;;;;;;;22.43;10.87;;;0.10;99.90;;;;;;5013020;28;20217;-76
2022/03/07 04:10:58;;;;;;;25.50;11.17;;;0.10;99.90;;;;;;5012898;28;20177;-76
2022/03/07 04:13:24;;;;;;;23.10;11.13;;;0.10;99.90;;;;;;5012892;28;20594;-76
2022/03/07 04:15:50;;;;;;;21.13;10.37;;;0.20;99.90;;;;;;5012988;28;20189;-76
2022/03/07 04:18:15;;;;;;;24.10;10.80;;;0.30;99.90;;;;;;5012744;28;20207;-76
2022/03/07 04:20:42;;;;;;;21.53;9.70;;;0.30;99.90;;;;;;5012871;28;20745;-76
2022/03/07 04:23:08;;;;;;;20.20;10.27;;;0.20;99.90;;;;;;5012516;28;20240;-76
2022/03/07 04:25:33;;;;;;;16.93;9.40;;;0.20;99.90;;;;;;5012783;28;20200;-76
2022/03/07 04:28:00;;;;;;;18.93;9.67;;;0.20;99.90;;;;;;5012546;28;20605;-76
2022/03/07 04:30:26;;;;;;;22.10;10.40;;;0.20;99.90;;;;;;5012704;28;20687;-76
2022/03/07 04:32:52;;;;;;;23.90;10.67;;;0.20;99.90;;;;;;5012431;28;20214;-76
2022/03/07 04:35:18;;;;;;;20.23;9.87;;;0.20;99.90;;;;;;5012629;28;20281;-76
2022/03/07 04:37:44;;;;;;;24.97;10.60;;;0.30;99.90;;;;;;5012460;28;20625;-76
2022/03/07 04:40:17;;;;;;;21.90;11.23;;;0.30;99.90;;;;;;5013759;28;20251;-77
2022/03/07 04:42:44;;;;;;;21.57;10.80;;;0.20;99.90;;;;;;5012166;28;20620;-77
2022/03/07 04:45:11;;;;;;;22.20;9.67;;;0.10;99.90;;;;;;5012417;28;20592;-76
2022/03/07 04:47:37;;;;;;;22.70;10.90;;;0.10;99.90;;;;;;5012342;28;20199;-76
2022/03/07 04:50:04;;;;;;;20.23;10.40;;;0.10;99.90;;;;;;5012375;28;20170;-76
2022/03/07 04:52:30;;;;;;;24.67;10.37;;;0.10;99.90;;;;;;5012056;28;20210;-76
2022/03/07 04:54:55;;;;;;;23.87;10.37;;;0.10;99.90;;;;;;5013385;28;20204;-77
2022/03/07 04:57:21;;;;;;;20.03;10.17;;;0.10;99.90;;;;;;5012041;28;20198;-76
2022/03/07 04:59:47;;;;;;;25.77;10.57;;;0.00;99.90;;;;;;5011291;28;20184;-77
2022/03/07 05:02:13;;;;;;;23.97;10.73;;;0.10;99.90;;;;;;5012241;28;20169;-76
2022/03/07 05:04:40;;;;;;;19.77;10.53;;;0.00;99.90;;;;;;5011572;28;20208;-76
2022/03/07 05:07:06;;;;;;;19.83;10.40;;;0.00;99.90;;;;;;5011966;28;20176;-77
2022/03/07 05:09:32;;;;;;;23.70;10.87;;;0.00;99.90;;;;;;5012030;28;20172;-76
2022/03/07 05:11:59;;;;;;;21.83;10.80;;;0.00;99.90;;;;;;5013063;28;20651;-77
2022/03/07 05:14:24;;;;;;;26.93;11.10;;;0.00;99.90;;;;;;5011898;28;20183;-77
2022/03/07 05:16:50;;;;;;;22.97;10.33;;;-0.10;99.90;;;;;;5011892;28;20184;-77
2022/03/07 05:19:16;;;;;;;23.27;10.80;;;-0.20;99.90;;;;;;5011808;28;20383;-77
2022/03/07 05:21:41;;;;;;;19.07;10.50;;;-0.20;99.90;;;;;;5011680;28;20668;-77
2022/03/07 05:24:09;;;;;;;23.07;11.13;;;-0.20;99.90;;;;;;5011632;28;20215;-76
2022/03/07 05:26:35;;;;;;;21.20;10.93;;;-0.20;99.90;;;;;;5011682;28;20218;-76
2022/03/07 05:29:01;;;;;;;20.37;11.23;;;-0.20;99.90;;;;;;5011618;28;20247;-77
2022/03/07 05:31:26;;;;;;;19.20;10.27;;;-0.30;99.90;;;;;;5011555;28;20178;-76
2022/03/07 05:33:52;;;;;;;26.60;10.07;;;-0.30;99.90;;;;;;5011539;28;20187;-76
2022/03/07 05:36:17;;;;;;;25.83;11.43;;;-0.40;99.90;;;;;;5011466;28;20178;-76
2022/03/07 05:38:43;;;;;;;21.00;10.40;;;-0.40;99.90;;;;;;5011415;28;20211;-76
2022/03/07 05:41:09;;;;;;;21.10;10.93;;;-0.50;99.90;;;;;;5011092;28;20187;-77
2022/03/07 05:43:35;;;;;;;23.60;11.13;;;-0.60;99.90;;;;;;5011349;28;20247;-76
2022/03/07 05:46:01;;;;;;;29.67;11.03;;;-0.50;99.90;;;;;;5011293;28;20176;-76
2022/03/07 05:48:26;;;;;;;26.20;11.70;;;-0.60;99.90;;;;;;5011225;28;20989;-76
2022/03/07 05:50:52;;;;;;;20.83;10.37;;;-0.70;99.90;;;;;;5011232;28;20544;-76
2022/03/07 05:53:21;;;;;;;22.13;10.67;;;-0.70;99.90;;;;;;5010954;28;20271;-76
2022/03/07 05:55:51;;;;;;;23.33;11.40;;;-0.80;99.90;;;;;;5011229;28;20198;-76
2022/03/07 05:58:17;;;;;;;26.03;11.17;;;-0.60;99.90;;;;;;5011215;28;20266;-79
2022/03/07 06:00:43;;;;;;;27.00;11.60;;;-0.60;99.90;;;;;;5011213;28;20182;-78
2022/03/07 06:03:09;;;;;;;25.27;11.40;;;-0.60;99.90;;;;;;5011866;28;20206;-78
2022/03/07 06:05:35;;;;;;;27.00;11.13;;;-0.50;99.90;;;;;;5011646;28;20547;-78
2022/03/07 06:08:01;;;;;;;24.77;11.43;;;-0.50;99.90;;;;;;5011137;28;20195;-76
2022/03/07 06:10:26;;;;;;;29.33;11.70;;;-0.60;99.90;;;;;;5011004;28;20177;-76
2022/03/07 06:12:52;;;;;;;25.87;12.33;;;-0.60;99.90;;;;;;5010723;28;20191;-78
2022/03/07 06:15:20;;;;;;;25.40;12.33;;;-0.60;99.90;;;;;;5010916;28;20175;-76
2022/03/07 06:17:51;;;;;;;24.07;11.47;;;-0.60;99.90;;;;;;5010828;28;20194;-76
2022/03/07 06:20:17;;;;;;;24.93;12.20;;;-0.50;99.90;;;;;;5010838;28;20211;-76
2022/03/07 06:22:43;;;;;;;26.13;11.87;;;-0.50;99.90;;;;;;5010560;28;20254;-76
2022/03/07 06:25:09;;;;;;;24.93;11.57;;;-0.40;99.90;;;;;;5010777;28;20184;-76
2022/03/07 06:27:34;;;;;;;21.80;10.23;;;-0.40;99.90;;;;;;5010683;28;20198;-76
2022/03/07 06:30:00;;;;;;;25.57;11.73;;;-0.40;99.90;;;;;;5010933;28;20187;-78
2022/03/07 06:32:26;;;;;;;24.97;10.60;;;-0.20;99.90;;;;;;5010631;28;20536;-78
2022/03/07 06:34:52;;;;;;;22.73;11.70;;;-0.20;99.90;;;;;;5011148;28;20612;-78
2022/03/07 06:37:18;;;;;;;26.63;12.00;;;0.00;99.90;;;;;;5010963;28;20492;-78
2022/03/07 06:39:44;;;;;;;22.63;11.60;;;0.00;99.90;;;;;;5010831;28;20621;-78
2022/03/07 06:42:10;;;;;;;27.50;11.77;;;0.00;99.90;;;;;;5010959;28;20188;-78
2022/03/07 06:44:39;;;;;;;26.67;11.47;;;0.00;99.90;;;;;;5010585;28;20339;-76
2022/03/07 06:47:06;;;;;;;25.23;10.87;;;-0.10;99.90;;;;;;5010580;28;20176;-76
2022/03/07 06:49:32;;;;;;;23.03;10.53;;;-0.10;99.90;;;;;;5010549;28;20624;-78
2022/03/07 06:51:58;;;;;;;26.83;10.53;;;-0.10;99.90;;;;;;5011154;28;20189;-78
2022/03/07 06:54:24;;;;;;;22.73;10.90;;;0.00;99.90;;;;;;5011278;28;20176;-78
2022/03/07 06:56:49;;;;;;;21.97;11.00;;;0.00;99.90;;;;;;5012975;28;20177;-76
2022/03/07 06:59:15;;;;;;;20.47;10.40;;;0.20;99.90;;;;;;5010124;28;20305;-76
2022/03/07 07:01:43;;;;;;;25.67;10.77;;;0.40;99.90;;;;;;5010294;28;20321;-76
2022/03/07 07:04:09;;;;;;;23.10;10.33;;;0.60;99.90;;;;;;5010231;28;20214;-76
2022/03/07 07:06:35;;;;;;;16.17;10.30;;;1.10;99.90;;;;;;5009510;28;20681;-76
2022/03/07 07:09:00;;;;;;;23.60;9.67;;;1.70;99.90;;;;;;5010439;28;20197;-76
2022/03/07 07:11:26;;;;;;;18.10;9.27;;;2.20;99.90;;;;;;5010102;28;20175;-76
2022/03/07 07:13:52;;;;;;;19.53;9.53;;;2.40;99.90;;;;;;5010472;28;20183;-77
2022/03/07 07:16:18;;;;;;;20.27;10.00;;;3.00;99.90;;;;;;5011272;28;20239;-78
2022/03/07 07:18:44;;;;;;;15.17;9.00;;;3.00;99.90;;;;;;5013249;28;20201;-77
2022/03/07 07:21:09;;;;;;;14.23;8.57;;;3.20;99.90;;;;;;5011262;28;20188;-79
2022/03/07 07:23:36;;;;;;;18.80;9.40;;;4.40;99.70;;;;;;5011625;28;20601;-79
2022/03/07 07:26:03;;;;;;;14.10;8.77;;;4.90;97.40;;;;;;5012731;28;20182;-79
2022/03/07 07:28:29;;;;;;;19.23;9.47;;;4.70;97.40;;;;;;5014547;28;20214;-79
2022/03/07 07:30:54;;;;;;;16.70;8.73;;;5.60;95.80;;;;;;5015438;28;20203;-79
2022/03/07 07:33:20;;;;;;;14.07;9.33;;;7.10;92.70;;;;;;5014935;28;20189;-79
2022/03/07 07:35:46;;;;;;;13.77;8.93;;;7.70;90.80;;;;;;5015077;28;20191;-80
2022/03/07 07:38:11;;;;;;;20.97;9.90;;;7.80;90.60;;;;;;5015205;28;20293;-79
2022/03/07 07:40:37;;;;;;;14.17;9.53;;;7.10;91.40;;;;;;5014945;28;20772;-79
2022/03/07 07:43:03;;;;;;;13.00;8.40;;;6.00;93.20;;;;;;5014993;28;20566;-80
2022/03/07 07:45:29;;;;;;;16.53;8.93;;;6.80;91.40;;;;;;5014735;28;20182;-80
2022/03/07 07:47:54;;;;;;;13.33;8.77;;;7.60;89.20;;;;;;5014795;28;20221;-80
2022/03/07 07:50:20;;;;;;;11.97;8.43;;;8.00;90.00;;;;;;5014269;28;20229;-80
2022/03/07 07:52:46;;;;;;;16.47;9.00;;;8.30;87.60;;;;;;5014633;28;20179;-80
2022/03/07 07:55:13;;;;;;;16.70;9.63;;;8.40;86.40;;;;;;5014970;28;20175;-81
2022/03/07 07:57:41;;;;;;;19.47;9.13;;;8.10;87.00;;;;;;5014607;28;20203;-81
2022/03/07 08:00:10;;;;;;;19.73;9.00;;;8.40;86.10;;;;;;5013897;28;20178;-81
2022/03/07 08:02:36;;;;;;;15.37;8.80;;;9.00;86.50;;;;;;5014058;28;20270;-81
2022/03/07 08:05:03;;;;;;;17.43;9.30;;;7.60;89.30;;;;;;5014083;28;20191;-81
2022/03/07 08:07:29;;;;;;;19.43;9.07;;;7.80;90.50;;;;;;5015168;28;20214;-81
2022/03/07 08:09:55;;;;;;;19.30;9.17;;;8.80;86.80;;;;;;5011934;28;20213;-80
2022/03/07 08:12:20;;;;;;;11.90;8.80;;;9.50;84.40;;;;;;5014129;28;20209;-81
2022/03/07 08:14:46;;;;;;;12.57;8.70;;;8.90;84.40;;;;;;5014641;28;20174;-81
2022/03/07 08:17:12;;;;;;;14.63;8.70;;;7.40;90.60;;;;;;5014135;28;20639;-81
2022/03/07 08:19:38;;;;;;;10.77;7.80;;;6.80;91.50;;;;;;5014008;28;20233;-81
2022/03/07 08:22:04;;;;;;;14.20;7.90;;;6.90;91.40;;;;;;5013674;28;20289;-81
2022/03/07 08:24:30;;;;;;;16.53;8.73;;;6.70;91.70;;;;;;5013684;28;20718;-81
2022/03/07 08:26:57;;;;;;;14.53;8.87;;;6.50;91.90;;;;;;5013816;28;20184;-81
2022/03/07 08:29:23;;;;;;;13.33;8.10;;;7.20;91.80;;;;;;5013942;28;20206;-81
2022/03/07 08:31:49;;;;;;;11.40;7.67;;;8.80;88.70;;;;;;5014538;28;20639;-81
2022/03/07 08:34:15;;;;;;;11.17;7.83;;;9.70;82.80;;;;;;5013955;28;20179;-81
2022/03/07 08:36:41;;;;;;;10.77;7.97;;;10.30;81.30;;;;;;5014010;28;20232;-81
2022/03/07 08:39:06;;;;;;;13.93;8.47;;;10.00;82.10;;;;;;5013100;28;20198;-81
2022/03/07 08:41:34;;;;;;;12.27;8.53;;;9.30;84.00;;;;;;5016418;28;20635;-80
2022/03/07 08:44:00;;;;;;;12.30;7.67;;;9.40;85.60;;;;;;5014659;28;20191;-80
2022/03/07 08:46:26;;;;;;;15.97;8.00;;;8.80;86.10;;;;;;5016085;28;20167;-80
2022/03/07 08:48:52;;;;;;;12.00;8.20;;;8.10;89.00;;;;;;5015028;28;20195;-80
2022/03/07 08:51:17;;;;;;;13.17;7.87;;;8.30;88.20;;;;;;5013403;28;20178;-80
2022/03/07 08:53:43;;;;;;;13.47;7.40;;;7.40;89.80;;;;;;5013368;28;20171;-80
2022/03/07 08:56:09;;;;;;;11.07;6.43;;;8.20;87.40;;;;;;5014662;28;20190;-80
2022/03/07 08:58:35;;;;;;;11.17;7.47;;;8.00;87.70;;;;;;5013834;28;20191;-80
2022/03/07 09:01:00;;;;;;;11.30;6.77;;;7.70;89.30;;;;;;5013968;28;20204;-81
2022/03/07 09:03:26;;;;;;;10.27;6.93;;;8.10;85.70;;;;;;5014487;28;20212;-80
2022/03/07 09:05:52;;;;;;;11.33;6.20;;;8.60;84.50;;;;;;5014920;28;20269;-80
2022/03/07 09:08:17;;;;;;;6.90;5.30;;;7.90;85.80;;;;;;5014062;28;20194;-81
2022/03/07 09:10:43;;;;;;;13.40;6.33;;;7.70;84.50;;;;;;5013767;28;20175;-80
2022/03/07 09:13:08;;;;;;;9.07;6.40;;;8.20;87.70;;;;;;5014014;28;20179;-80
2022/03/07 09:15:34;;;;;;;12.90;6.67;;;8.50;84.50;;;;;;5014057;28;20196;-81
2022/03/07 09:18:00;;;;;;;7.93;4.90;;;8.90;83.80;;;;;;5014087;28;20810;-81
2022/03/07 09:20:27;;;;;;;7.90;5.53;;;8.60;81.30;;;;;;5013534;28;20259;-80
2022/03/07 09:22:52;;;;;;;11.17;5.57;;;8.40;82.30;;;;;;5013322;28;20678;-80
2022/03/07 09:25:18;;;;;;;9.63;5.23;;;8.90;81.30;;;;;;5013724;28;20273;-81
2022/03/07 09:27:44;;;;;;;8.70;5.30;;;9.10;80.30;;;;;;5013649;28;20649;-81
2022/03/07 09:30:12;;;;;;;6.70;4.90;;;8.70;82.70;;;;;;5013757;28;20178;-80
2022/03/07 09:32:39;;;;;;;9.90;5.43;;;8.90;80.40;;;;;;5012524;28;20171;-79
2022/03/07 09:35:05;;;;;;;6.83;4.07;;;8.90;79.90;;;;;;5013588;28;20254;-78
2022/03/07 09:37:31;;;;;;;10.23;6.07;;;8.80;77.70;;;;;;5012201;28;20204;-79
2022/03/07 09:39:57;;;;;;;11.23;5.47;;;8.90;80.30;;;;;;5012934;28;20173;-78
2022/03/07 09:42:22;;;;;;;10.63;5.97;;;9.00;79.00;;;;;;5011583;28;20169;-78
2022/03/07 09:44:49;;;;;;;9.73;5.57;;;8.70;82.80;;;;;;5012168;28;20216;-78
2022/03/07 09:47:15;;;;;;;12.13;5.47;;;8.60;82.00;;;;;;5012628;28;20172;-78
2022/03/07 09:49:41;;;;;;;11.00;6.23;;;8.50;82.00;;;;;;5011123;28;20185;-78
2022/03/07 09:52:07;;;;;;;12.47;5.50;;;8.60;81.70;;;;;;5011157;28;20171;-78
2022/03/07 09:54:32;;;;;;;11.70;6.17;;;9.00;81.70;;;;;;5011681;28;20634;-78
2022/03/07 09:56:58;;;;;;;9.43;5.57;;;8.60;82.40;;;;;;5012457;28;20175;-78
2022/03/07 09:59:24;;;;;;;9.93;6.30;;;9.20;81.10;;;;;;5012154;28;20201;-78
2022/03/07 10:02:05;;;;;;;10.73;5.70;;;8.50;83.90;;;;;;5012436;28;20174;-78
2022/03/07 10:04:32;;;;;;;9.77;5.70;;;8.60;83.50;;;;;;5013173;28;20609;-79
2022/03/07 10:07:01;;;;;;;11.47;6.00;;;9.00;83.00;;;;;;5013038;28;20269;-78
2022/03/07 10:09:27;;;;;;;10.20;6.50;;;9.10;81.80;;;;;;5012545;28;20187;-79
2022/03/07 10:11:55;;;;;;;11.73;6.53;;;8.40;83.40;;;;;;5013035;28;20205;-78
2022/03/07 10:14:44;;;;;;;10.50;6.47;;;8.30;83.00;;;;;;5012450;28;20174;-78
2022/03/07 10:17:25;;;;;;;9.20;6.27;;;7.80;83.00;;;;;;5012343;28;20694;-78
2022/03/07 10:19:52;;;;;;;11.70;5.90;;;8.10;83.20;;;;;;5012310;28;20163;-78
2022/03/07 10:22:22;;;;;;;10.70;5.97;;;8.50;82.40;;;;;;5012461;28;20175;-79
2022/03/07 10:25:00;;;;;;;12.50;5.60;;;8.90;81.70;;;;;;5012341;28;20261;-79
2022/03/07 10:27:30;;;;;;;9.17;5.40;;;8.70;81.50;;;;;;5012069;28;20632;-78
2022/03/07 10:29:56;;;;;;;10.60;6.00;;;8.60;81.40;;;;;;5013092;28;20169;-80
2022/03/07 10:32:21;;;;;;;12.70;5.73;;;8.20;80.10;;;;;;5013347;28;20590;-80
2022/03/07 10:34:47;;;;;;;12.37;4.73;;;8.40;82.60;;;;;;5014543;28;20182;-80
2022/03/07 10:37:13;;;;;;;12.17;5.60;;;8.80;81.00;;;;;;5013502;28;20198;-78
2022/03/07 10:39:53;;;;;;;10.30;5.50;;;8.20;81.60;;;;;;5013482;28;20181;-79
2022/03/07 10:42:20;;;;;;;9.13;5.27;;;8.60;82.90;;;;;;5013471;28;20220;-79
2022/03/07 10:44:46;;;;;;;9.77;5.67;;;8.40;82.60;;;;;;5013551;28;20219;-78
2022/03/07 10:47:18;;;;;;;9.00;5.80;;;8.60;83.00;;;;;;5013412;28;20171;-81
2022/03/07 10:49:50;;;;;;;10.73;6.43;;;8.70;81.50;;;;;;5013346;28;20177;-78
2022/03/07 10:52:17;;;;;;;11.77;6.30;;;8.70;85.00;;;;;;5013305;28;20241;-79
2022/03/07 10:54:43;;;;;;;11.53;6.20;;;9.00;84.20;;;;;;5013215;28;20172;-80
2022/03/07 10:57:09;;;;;;;10.83;6.00;;;8.60;83.30;;;;;;5013118;28;20181;-79
2022/03/07 10:59:36;;;;;;;11.70;6.13;;;8.40;83.80;;;;;;5012496;28;20175;-79
2022/03/07 11:02:09;;;;;;;10.57;6.63;;;8.50;82.90;;;;;;5016249;28;20613;-79
2022/03/07 11:04:38;;;;;;;8.97;5.97;;;8.70;82.30;;;;;;5015962;28;20208;-81
2022/03/07 11:07:06;;;;;;;11.80;6.27;;;9.00;82.70;;;;;;5016142;28;20763;-80
2022/03/07 11:09:32;;;;;;;9.13;6.27;;;9.00;80.90;;;;;;5015423;28;20674;-79
2022/03/07 11:11:59;;;;;;;9.03;6.43;;;9.10;81.00;;;;;;5014214;28;20173;-79
2022/03/07 11:14:27;;;;;;;11.53;6.33;;;8.80;82.80;;;;;;5014648;28;20192;-79
2022/03/07 11:16:56;;;;;;;9.20;6.30;;;8.60;82.50;;;;;;5014650;28;20592;-80
2022/03/07 11:19:26;;;;;;;11.33;6.13;;;9.10;81.50;;;;;;5015151;28;20196;-80
2022/03/07 11:21:54;;;;;;;14.73;6.47;;;9.20;81.00;;;;;;5015481;28;20186;-80
2022/03/07 11:24:22;;;;;;;9.90;6.30;;;8.80;82.30;;;;;;5015299;28;20195;-79
2022/03/07 11:26:49;;;;;;;18.50;6.53;;;8.70;83.00;;;;;;5015433;28;20180;-79
2022/03/07 11:29:16;;;;;;;10.53;6.40;;;8.80;83.10;;;;;;5014943;28;20195;-79
2022/03/07 11:31:43;;;;;;;10.63;6.30;;;9.00;85.40;;;;;;5021996;28;20274;-78
2022/03/07 11:34:10;;;;;;;8.93;5.73;;;9.40;82.40;;;;;;5020354;28;20196;-79
2022/03/07 11:36:45;;;;;;;12.80;6.07;;;9.60;80.60;;;;;;5016986;28;20232;-79
2022/03/07 11:39:12;;;;;;;8.67;5.53;;;9.40;82.10;;;;;;5013608;28;20525;-79
2022/03/07 11:41:39;;;;;;;9.80;5.93;;;9.20;80.90;;;;;;5013416;28;20276;-79
2022/03/07 11:44:14;;;;;;;11.03;5.83;;;9.10;79.60;;;;;;5013428;28;20196;-78
2022/03/07 11:46:42;;;;;;;9.33;5.57;;;8.70;82.90;;;;;;5013480;28;20172;-78
2022/03/07 11:49:10;;;;;;;9.13;5.37;;;9.00;81.40;;;;;;5012824;28;20540;-77
2022/03/07 11:51:38;;;;;;;11.50;5.60;;;9.70;78.80;;;;;;5012228;28;20178;-77
2022/03/07 11:54:05;;;;;;;6.47;4.73;;;9.50;79.90;;;;;;5012103;28;20177;-78
2022/03/07 11:56:34;;;;;;;6.13;4.90;;;9.40;79.10;;;;;;5012413;28;20697;-78
2022/03/07 11:59:03;;;;;;;6.43;4.60;;;9.40;78.60;;;;;;5012902;28;20229;-78
2022/03/07 12:01:31;;;;;;;10.07;4.33;;;9.20;78.70;;;;;;5012712;28;20186;-78
2022/03/07 12:04:11;;;;;;;7.27;4.67;;;9.20;77.40;;;;;;5012492;28;20258;-78
2022/03/07 12:06:43;;;;;;;7.13;4.50;;;9.30;77.30;;;;;;5013019;28;20163;-79
2022/03/07 12:09:09;;;;;;;10.57;4.70;;;9.20;78.30;;;;;;5014245;28;20188;-79
2022/03/07 12:11:38;;;;;;;7.63;4.67;;;8.60;78.80;;;;;;5011676;28;20199;-78
2022/03/07 12:14:06;;;;;;;7.23;4.43;;;9.00;79.00;;;;;;5012603;28;20729;-80
2022/03/07 12:16:33;;;;;;;9.43;4.77;;;8.90;77.50;;;;;;5012425;28;20175;-80
2022/03/07 12:19:13;;;;;;;8.13;4.77;;;8.80;77.10;;;;;;5012415;28;20199;-79
2022/03/07 12:21:42;;;;;;;6.43;4.43;;;8.80;77.50;;;;;;5013203;28;20233;-81
2022/03/07 12:24:09;;;;;;;8.83;4.67;;;9.00;77.90;;;;;;5012686;28;20556;-80
2022/03/07 12:26:44;;;;;;;5.57;4.53;;;9.60;76.00;;;;;;5012351;28;20175;-78
2022/03/07 12:29:10;;;;;;;9.50;4.50;;;9.70;77.30;;;;;;5013634;28;20191;-79
2022/03/07 12:31:36;;;;;;;6.33;4.07;;;9.20;75.50;;;;;;5013599;28;20262;-78
2022/03/07 12:34:04;;;;;;;6.13;4.20;;;8.80;76.80;;;;;;5013926;28;20207;-80
2022/03/07 12:36:30;;;;;;;7.20;4.30;;;8.90;77.30;;;;;;5013298;28;20178;-79